Terminal Aerodrome Forecast
Issued by NWS Portland, OR

Home | Current Version | Previous Version | Text Only | Print | Product List | Glossary On
Versions: 1 2 3 4 5 6 7 8 9 10 11 12 13
000
FTUS46 KPQR 251721
TAFSLE
TAF
KSLE 251721Z 2518/2618 VRB04KT P6SM SKC
     FM260000 32010KT P6SM SKC
     FM260600 32005KT P6SM SKC
     FM261200 33004KT P6SM SCT025
     FM261600 01008KT P6SM SKC=

USA.gov is the U.S. government's official web portal to all federal, state and local government web resources and services.